Flight Track Log - Related Links

Times and Time Zones

All times are in EDT time to prevent confusion due to time zone crossing. See the CTL17 flight status page for this flight to view local times or setup timezone preferences in your user account.

Time Position Orientation Groundspeed Altitude Reporting Facility
EDT Latitude Longitude Course Direction KTS MPH feet Rate Location/Type
Wed 04:19:13 PM 42.6656 -83.3983 88° East 104 120 1,300  Level Cleveland Center
Wed 04:19:55 PM 42.6661 -83.3703 88° East 113 130 2,000 857 Climbing Cleveland Center
Wed 04:20:44 PM 42.6733 -83.3367 74° East 125 144 2,600 808 Climbing Cleveland Center
Wed 04:21:39 PM 42.7064 -83.3436 351° North 129 148 3,400 873 Climbing Cleveland Center
Wed 04:23:00 PM 42.7463 -83.3786 14° North  Level Estimated
Wed 04:30:00 PM 42.9808 -83.4555 321° Northwest  Level FlightAware Approximate
Wed 04:31:00 PM 43.0082 -83.4857 321° Northwest  Level FlightAware Approximate
Wed 04:32:00 PM 43.0356 -83.5159 321° Northwest  Level FlightAware Approximate
Wed 04:33:00 PM 43.0630 -83.5462 321° Northwest  Level FlightAware Approximate
Wed 04:34:00 PM 43.0903 -83.5764 321° Northwest  Level FlightAware Approximate
Wed 04:35:00 PM 43.1177 -83.6068 321° Northwest  Level FlightAware Approximate
Wed 04:36:00 PM 43.1450 -83.6371 321° Northwest  Level FlightAware Approximate
Wed 04:37:00 PM 43.1724 -83.6674 321° Northwest  Level FlightAware Approximate
Wed 04:38:00 PM 43.1997 -83.6978 321° Northwest  Level FlightAware Approximate
Wed 04:39:00 PM 43.2266 -83.7288 318° Northwest  Level FlightAware Approximate
Wed 04:40:00 PM 43.2529 -83.7609 318° Northwest  Level FlightAware Approximate
Wed 04:41:00 PM 43.2792 -83.7930 318° Northwest  Level FlightAware Approximate
Wed 04:42:00 PM 43.3055 -83.8251 318° Northwest  Level FlightAware Approximate
Wed 04:43:00 PM 43.3318 -83.8573 318° Northwest  Level FlightAware Approximate
Wed 04:44:00 PM 43.3581 -83.8894 318° Northwest  Level FlightAware Approximate
Wed 04:45:00 PM 43.3858 -83.9191 324° Northwest  Level FlightAware Approximate
Wed 04:46:00 PM 43.4143 -83.9475 324° Northwest  Level FlightAware Approximate
Wed 04:47:00 PM 43.4428 -83.9760 324° Northwest  Level FlightAware Approximate
Wed 04:48:00 PM 43.4712 -84.0045 324° Northwest  Level FlightAware Approximate
Wed 04:49:00 PM 43.4997 -84.0330 324° Northwest  Level FlightAware Approximate
Wed 04:50:00 PM 43.5167 -84.0667 305° West  Level FlightAware Approximate
Wed 04:51:00 PM 43.5329 -84.0796 305° West  Level Estimated
Wed 04:52:00 PM 43.5329 -84.0796 305° West  Level Estimated

Login

Don't have an account? Register now (free) for customized features, flight alerts, and more!